sensor_id;sensor_type;location;lat;lon;timestamp;pressure;altitude;pressure_sealevel;temperature;humidity
42601;BME280;28229;48.856;9.088;2022-10-23T00:00:09;98008.38;;;11.80;100.00
42601;BME280;28229;48.856;9.088;2022-10-23T00:02:35;98000.91;;;11.77;100.00
42601;BME280;28229;48.856;9.088;2022-10-23T00:05:01;98005.38;;;11.77;100.00
42601;BME280;28229;48.856;9.088;2022-10-23T00:07:27;97992.69;;;11.86;100.00
42601;BME280;28229;48.856;9.088;2022-10-23T00:09:53;98000.94;;;11.89;100.00
42601;BME280;28229;48.856;9.088;2022-10-23T00:12:19;97997.50;;;11.89;100.00
42601;BME280;28229;48.856;9.088;2022-10-23T00:14:45;97993.22;;;11.94;100.00
42601;BME280;28229;48.856;9.088;2022-10-23T00:17:10;97992.38;;;11.94;100.00
42601;BME280;28229;48.856;9.088;2022-10-23T00:19:37;97994.22;;;11.93;100.00
42601;BME280;28229;48.856;9.088;2022-10-23T00:22:03;97991.72;;;11.98;100.00
42601;BME280;28229;48.856;9.088;2022-10-23T00:24:29;97998.16;;;12.03;100.00
42601;BME280;28229;48.856;9.088;2022-10-23T00:26:55;98003.84;;;11.99;100.00
42601;BME280;28229;48.856;9.088;2022-10-23T00:29:20;98003.06;;;11.99;100.00
42601;BME280;28229;48.856;9.088;2022-10-23T00:31:46;98002.72;;;11.95;100.00
42601;BME280;28229;48.856;9.088;2022-10-23T00:34:12;97998.31;;;11.89;100.00
42601;BME280;28229;48.856;9.088;2022-10-23T00:36:40;97998.97;;;11.85;100.00
42601;BME280;28229;48.856;9.088;2022-10-23T00:39:06;98004.47;;;11.83;100.00
42601;BME280;28229;48.856;9.088;2022-10-23T00:41:33;98006.75;;;11.79;100.00
42601;BME280;28229;48.856;9.088;2022-10-23T00:44:03;98005.00;;;11.73;100.00
42601;BME280;28229;48.856;9.088;2022-10-23T00:46:30;97998.88;;;11.61;100.00
42601;BME280;28229;48.856;9.088;2022-10-23T00:48:57;97994.97;;;11.63;100.00
42601;BME280;28229;48.856;9.088;2022-10-23T00:51:24;97999.91;;;11.60;100.00
42601;BME280;28229;48.856;9.088;2022-10-23T00:53:56;97989.91;;;11.50;100.00
42601;BME280;28229;48.856;9.088;2022-10-23T00:56:24;97990.53;;;11.46;100.00
42601;BME280;28229;48.856;9.088;2022-10-23T00:58:50;97981.47;;;11.41;100.00
42601;BME280;28229;48.856;9.088;2022-10-23T01:01:19;97983.53;;;11.39;100.00
42601;BME280;28229;48.856;9.088;2022-10-23T01:03:46;97979.28;;;11.38;100.00
42601;BME280;28229;48.856;9.088;2022-10-23T01:06:24;97982.97;;;11.37;100.00
42601;BME280;28229;48.856;9.088;2022-10-23T01:12:09;97980.44;;;11.42;100.00
42601;BME280;28229;48.856;9.088;2022-10-23T01:17:36;97980.00;;;11.46;100.00
42601;BME280;28229;48.856;9.088;2022-10-23T01:23:30;97975.97;;;11.61;100.00
42601;BME280;28229;48.856;9.088;2022-10-23T01:29:10;97961.22;;;11.72;100.00
42601;BME280;28229;48.856;9.088;2022-10-23T01:34:17;97947.03;;;11.73;100.00
42601;BME280;28229;48.856;9.088;2022-10-23T01:36:47;97954.94;;;11.73;100.00
42601;BME280;28229;48.856;9.088;2022-10-23T01:39:25;97957.78;;;11.72;100.00
42601;BME280;28229;48.856;9.088;2022-10-23T01:42:10;97952.97;;;11.69;100.00
42601;BME280;28229;48.856;9.088;2022-10-23T01:44:48;97940.13;;;11.72;100.00
42601;BME280;28229;48.856;9.088;2022-10-23T01:47:17;97941.75;;;11.73;100.00
42601;BME280;28229;48.856;9.088;2022-10-23T01:49:55;97940.59;;;11.69;100.00
42601;BME280;28229;48.856;9.088;2022-10-23T01:52:23;97945.75;;;11.64;100.00
42601;BME280;28229;48.856;9.088;2022-10-23T01:54:52;97940.84;;;11.68;100.00
42601;BME280;28229;48.856;9.088;2022-10-23T01:57:21;97951.13;;;11.69;100.00
42601;BME280;28229;48.856;9.088;2022-10-23T02:00:10;97952.16;;;11.68;100.00
42601;BME280;28229;48.856;9.088;2022-10-23T02:02:54;97950.41;;;11.62;100.00
42601;BME280;28229;48.856;9.088;2022-10-23T02:05:29;97941.78;;;11.55;100.00
42601;BME280;28229;48.856;9.088;2022-10-23T02:07:57;97931.78;;;11.45;100.00
42601;BME280;28229;48.856;9.088;2022-10-23T02:10:33;97926.75;;;11.43;100.00
42601;BME280;28229;48.856;9.088;2022-10-23T02:13:15;97933.94;;;11.36;100.00
42601;BME280;28229;48.856;9.088;2022-10-23T02:19:17;97922.09;;;11.27;100.00
42601;BME280;28229;48.856;9.088;2022-10-23T02:24:13;97916.03;;;11.27;100.00
42601;BME280;28229;48.856;9.088;2022-10-23T02:26:55;97913.47;;;11.20;100.00
42601;BME280;28229;48.856;9.088;2022-10-23T02:29:32;97920.34;;;11.21;100.00
42601;BME280;28229;48.856;9.088;2022-10-23T02:32:01;97919.31;;;11.22;100.00
42601;BME280;28229;48.856;9.088;2022-10-23T02:34:26;97910.06;;;11.19;100.00
42601;BME280;28229;48.856;9.088;2022-10-23T02:36:53;97915.38;;;11.13;100.00
42601;BME280;28229;48.856;9.088;2022-10-23T02:39:23;97911.19;;;11.05;100.00
42601;BME280;28229;48.856;9.088;2022-10-23T02:41:59;97909.81;;;11.02;100.00
42601;BME280;28229;48.856;9.088;2022-10-23T02:44:37;97901.34;;;11.00;100.00
42601;BME280;28229;48.856;9.088;2022-10-23T02:47:34;97901.34;;;11.00;100.00
42601;BME280;28229;48.856;9.088;2022-10-23T02:52:42;97886.13;;;11.02;100.00
42601;BME280;28229;48.856;9.088;2022-10-23T03:00:27;97885.56;;;11.00;100.00
42601;BME280;28229;48.856;9.088;2022-10-23T03:03:05;97883.88;;;11.06;100.00
42601;BME280;28229;48.856;9.088;2022-10-23T03:05:35;97881.44;;;11.04;100.00
42601;BME280;28229;48.856;9.088;2022-10-23T03:08:04;97883.72;;;11.01;100.00
42601;BME280;28229;48.856;9.088;2022-10-23T03:10:32;97885.56;;;11.00;100.00
42601;BME280;28229;48.856;9.088;2022-10-23T03:12:58;97883.66;;;11.08;100.00
42601;BME280;28229;48.856;9.088;2022-10-23T03:15:24;97870.19;;;10.97;100.00
42601;BME280;28229;48.856;9.088;2022-10-23T03:17:52;97882.34;;;10.98;100.00
42601;BME280;28229;48.856;9.088;2022-10-23T03:20:18;97881.31;;;10.99;100.00
42601;BME280;28229;48.856;9.088;2022-10-23T03:22:44;97883.06;;;11.05;100.00
42601;BME280;28229;48.856;9.088;2022-10-23T03:25:10;97882.94;;;11.00;100.00
42601;BME280;28229;48.856;9.088;2022-10-23T03:27:36;97881.16;;;11.13;100.00
42601;BME280;28229;48.856;9.088;2022-10-23T03:30:05;97878.97;;;11.10;100.00
42601;BME280;28229;48.856;9.088;2022-10-23T03:32:34;97877.13;;;11.10;100.00
42601;BME280;28229;48.856;9.088;2022-10-23T03:35:00;97863.88;;;11.17;100.00
42601;BME280;28229;48.856;9.088;2022-10-23T03:37:26;97866.66;;;11.22;100.00
42601;BME280;28229;48.856;9.088;2022-10-23T03:39:52;97867.66;;;11.21;100.00
42601;BME280;28229;48.856;9.088;2022-10-23T03:42:18;97864.59;;;11.24;100.00
42601;BME280;28229;48.856;9.088;2022-10-23T03:44:44;97866.66;;;11.22;100.00
42601;BME280;28229;48.856;9.088;2022-10-23T03:47:10;97867.22;;;11.24;100.00
42601;BME280;28229;48.856;9.088;2022-10-23T03:49:39;97865.75;;;11.28;100.00
42601;BME280;28229;48.856;9.088;2022-10-23T03:52:06;97860.47;;;11.28;100.00
42601;BME280;28229;48.856;9.088;2022-10-23T03:54:32;97851.13;;;11.32;100.00
42601;BME280;28229;48.856;9.088;2022-10-23T03:56:58;97856.97;;;11.34;100.00
42601;BME280;28229;48.856;9.088;2022-10-23T03:59:25;97858.56;;;11.35;100.00
42601;BME280;28229;48.856;9.088;2022-10-23T04:01:52;97866.94;;;11.32;100.00
42601;BME280;28229;48.856;9.088;2022-10-23T04:04:18;97865.75;;;11.28;100.00
42601;BME280;28229;48.856;9.088;2022-10-23T04:06:44;97863.13;;;11.28;100.00
42601;BME280;28229;48.856;9.088;2022-10-23T04:09:10;97865.59;;;11.41;100.00
42601;BME280;28229;48.856;9.088;2022-10-23T04:11:36;97870.50;;;11.38;100.00
42601;BME280;28229;48.856;9.088;2022-10-23T04:14:02;97863.72;;;11.30;100.00
42601;BME280;28229;48.856;9.088;2022-10-23T04:16:28;97853.63;;;11.27;100.00
42601;BME280;28229;48.856;9.088;2022-10-23T04:18:54;97856.13;;;11.22;100.00
42601;BME280;28229;48.856;9.088;2022-10-23T04:21:20;97866.28;;;11.18;100.00
42601;BME280;28229;48.856;9.088;2022-10-23T04:23:46;97869.81;;;11.12;100.00
42601;BME280;28229;48.856;9.088;2022-10-23T04:26:14;97871.28;;;11.08;100.00
42601;BME280;28229;48.856;9.088;2022-10-23T04:28:40;97873.69;;;11.10;100.00
42601;BME280;28229;48.856;9.088;2022-10-23T04:31:06;97865.78;;;11.10;100.00
42601;BME280;28229;48.856;9.088;2022-10-23T04:33:41;97867.72;;;11.02;100.00
42601;BME280;28229;48.856;9.088;2022-10-23T04:36:07;97867.28;;;11.05;100.00
42601;BME280;28229;48.856;9.088;2022-10-23T04:38:34;97869.09;;;11.05;100.00
42601;BME280;28229;48.856;9.088;2022-10-23T04:41:01;97869.00;;;11.12;100.00
42601;BME280;28229;48.856;9.088;2022-10-23T04:43:28;97865.22;;;11.08;100.00
42601;BME280;28229;48.856;9.088;2022-10-23T04:45:55;97866.44;;;11.05;100.00
42601;BME280;28229;48.856;9.088;2022-10-23T04:48:21;97854.31;;;11.04;100.00
42601;BME280;28229;48.856;9.088;2022-10-23T04:51:06;97865.22;;;11.08;100.00
42601;BME280;28229;48.856;9.088;2022-10-23T04:54:10;97866.81;;;11.09;100.00
42601;BME280;28229;48.856;9.088;2022-10-23T04:56:55;97860.81;;;11.01;100.00
42601;BME280;28229;48.856;9.088;2022-10-23T04:59:22;97865.50;;;10.99;100.00
42601;BME280;28229;48.856;9.088;2022-10-23T05:01:48;97856.38;;;11.02;100.00
42601;BME280;28229;48.856;9.088;2022-10-23T05:04:14;97853.53;;;11.03;100.00
42601;BME280;28229;48.856;9.088;2022-10-23T05:07:04;97857.63;;;10.99;100.00
42601;BME280;28229;48.856;9.088;2022-10-23T05:09:52;97863.09;;;10.98;100.00
42601;BME280;28229;48.856;9.088;2022-10-23T05:12:27;97860.25;;;10.99;100.00
42601;BME280;28229;48.856;9.088;2022-10-23T05:14:53;97857.19;;;11.02;100.00
42601;BME280;28229;48.856;9.088;2022-10-23T05:17:42;97849.72;;;10.99;100.00
42601;BME280;28229;48.856;9.088;2022-10-23T05:20:10;97851.19;;;10.95;100.00
42601;BME280;28229;48.856;9.088;2022-10-23T05:22:39;97838.97;;;11.01;100.00
42601;BME280;28229;48.856;9.088;2022-10-23T05:25:10;97844.25;;;11.01;100.00
42601;BME280;28229;48.856;9.088;2022-10-23T05:27:40;97838.81;;;10.96;100.00
42601;BME280;28229;48.856;9.088;2022-10-23T05:30:10;97839.41;;;10.98;100.00
42601;BME280;28229;48.856;9.088;2022-10-23T05:32:37;97834.97;;;10.98;100.00
42601;BME280;28229;48.856;9.088;2022-10-23T05:35:09;97848.34;;;10.97;100.00
42601;BME280;28229;48.856;9.088;2022-10-23T05:37:37;97840.66;;;10.95;100.00
42601;BME280;28229;48.856;9.088;2022-10-23T05:40:16;97837.88;;;10.90;100.00
42601;BME280;28229;48.856;9.088;2022-10-23T05:42:43;97841.56;;;10.89;100.00
42601;BME280;28229;48.856;9.088;2022-10-23T05:45:11;97826.94;;;10.93;100.00
42601;BME280;28229;48.856;9.088;2022-10-23T05:47:55;97833.19;;;10.92;100.00
42601;BME280;28229;48.856;9.088;2022-10-23T05:50:40;97820.88;;;10.93;100.00
42601;BME280;28229;48.856;9.088;2022-10-23T05:53:36;97829.13;;;10.96;100.00
42601;BME280;28229;48.856;9.088;2022-10-23T05:56:10;97814.47;;;11.00;100.00
42601;BME280;28229;48.856;9.088;2022-10-23T05:58:45;97810.81;;;11.01;100.00
42601;BME280;28229;48.856;9.088;2022-10-23T06:01:16;97815.50;;;10.99;100.00
42601;BME280;28229;48.856;9.088;2022-10-23T06:04:00;97809.78;;;11.02;100.00
42601;BME280;28229;48.856;9.088;2022-10-23T06:06:44;97809.72;;;11.09;100.00
42601;BME280;28229;48.856;9.088;2022-10-23T06:09:12;97813.00;;;11.04;100.00
42601;BME280;28229;48.856;9.088;2022-10-23T06:11:39;97818.63;;;11.08;100.00
42601;BME280;28229;48.856;9.088;2022-10-23T06:14:11;97813.72;;;11.12;100.00
42601;BME280;28229;48.856;9.088;2022-10-23T06:16:37;97814.06;;;11.15;100.00
42601;BME280;28229;48.856;9.088;2022-10-23T06:19:04;97811.22;;;11.17;100.00
42601;BME280;28229;48.856;9.088;2022-10-23T06:21:35;97814.44;;;11.19;100.00
42601;BME280;28229;48.856;9.088;2022-10-23T06:24:04;97807.56;;;11.18;100.00
42601;BME280;28229;48.856;9.088;2022-10-23T06:26:38;97803.91;;;11.19;100.00
42601;BME280;28229;48.856;9.088;2022-10-23T06:29:07;97796.56;;;11.21;100.00
42601;BME280;28229;48.856;9.088;2022-10-23T06:31:33;97796.13;;;11.24;100.00
42601;BME280;28229;48.856;9.088;2022-10-23T06:33:59;97800.38;;;11.25;100.00
42601;BME280;28229;48.856;9.088;2022-10-23T06:36:27;97803.81;;;11.26;100.00
42601;BME280;28229;48.856;9.088;2022-10-23T06:39:00;97815.72;;;11.28;100.00
42601;BME280;28229;48.856;9.088;2022-10-23T06:41:45;97812.56;;;11.38;100.00
42601;BME280;28229;48.856;9.088;2022-10-23T06:44:31;97800.44;;;11.49;100.00
42601;BME280;28229;48.856;9.088;2022-10-23T06:47:07;97798.38;;;11.51;100.00
42601;BME280;28229;48.856;9.088;2022-10-23T06:49:53;97804.13;;;11.59;100.00
42601;BME280;28229;48.856;9.088;2022-10-23T06:52:19;97796.00;;;11.61;100.00
42601;BME280;28229;48.856;9.088;2022-10-23T06:54:46;97796.34;;;11.65;100.00
42601;BME280;28229;48.856;9.088;2022-10-23T06:57:19;97793.00;;;11.69;100.00
42601;BME280;28229;48.856;9.088;2022-10-23T06:59:45;97791.53;;;11.73;100.00
42601;BME280;28229;48.856;9.088;2022-10-23T07:02:11;97794.75;;;11.75;100.00
42601;BME280;28229;48.856;9.088;2022-10-23T07:04:38;97794.88;;;11.80;100.00
42601;BME280;28229;48.856;9.088;2022-10-23T07:07:11;97798.41;;;11.86;100.00
42601;BME280;28229;48.856;9.088;2022-10-23T07:09:43;97793.06;;;11.93;100.00
42601;BME280;28229;48.856;9.088;2022-10-23T07:12:27;97803.47;;;11.99;100.00
42601;BME280;28229;48.856;9.088;2022-10-23T07:15:11;97802.81;;;12.04;100.00
42601;BME280;28229;48.856;9.088;2022-10-23T07:17:36;97794.00;;;12.10;100.00
42601;BME280;28229;48.856;9.088;2022-10-23T07:20:02;97793.50;;;12.13;100.00
42601;BME280;28229;48.856;9.088;2022-10-23T07:22:28;97793.06;;;12.16;99.33
42601;BME280;28229;48.856;9.088;2022-10-23T07:25:08;97789.25;;;12.24;99.27
42601;BME280;28229;48.856;9.088;2022-10-23T07:27:38;97792.13;;;12.34;98.39
42601;BME280;28229;48.856;9.088;2022-10-23T07:30:06;97797.16;;;12.36;98.13
42601;BME280;28229;48.856;9.088;2022-10-23T07:32:38;97792.22;;;12.40;98.48
42601;BME280;28229;48.856;9.088;2022-10-23T07:35:24;97794.97;;;12.45;98.06
42601;BME280;28229;48.856;9.088;2022-10-23T07:38:00;97801.16;;;12.50;98.51
42601;BME280;28229;48.856;9.088;2022-10-23T07:40:28;97805.38;;;12.63;98.15
42601;BME280;28229;48.856;9.088;2022-10-23T07:42:55;97800.53;;;12.72;97.63
42601;BME280;28229;48.856;9.088;2022-10-23T07:45:21;97797.88;;;12.84;97.96
42601;BME280;28229;48.856;9.088;2022-10-23T07:47:51;97811.97;;;12.89;98.41
42601;BME280;28229;48.856;9.088;2022-10-23T07:50:18;97815.25;;;12.97;98.11
42601;BME280;28229;48.856;9.088;2022-10-23T07:52:44;97817.88;;;13.08;97.10
42601;BME280;28229;48.856;9.088;2022-10-23T07:55:12;97815.63;;;13.17;96.76
42601;BME280;28229;48.856;9.088;2022-10-23T07:58:04;97820.06;;;13.28;97.16
42601;BME280;28229;48.856;9.088;2022-10-23T08:00:41;97819.09;;;13.46;97.79
42601;BME280;28229;48.856;9.088;2022-10-23T08:03:18;97818.06;;;13.64;100.00
42601;BME280;28229;48.856;9.088;2022-10-23T08:05:46;97817.41;;;13.74;100.00
42601;BME280;28229;48.856;9.088;2022-10-23T08:08:12;97800.53;;;13.92;97.86
42601;BME280;28229;48.856;9.088;2022-10-23T08:10:40;97796.38;;;14.18;99.00
42601;BME280;28229;48.856;9.088;2022-10-23T08:13:11;97783.69;;;14.37;97.88
42601;BME280;28229;48.856;9.088;2022-10-23T08:16:07;97789.66;;;14.50;88.34
42601;BME280;28229;48.856;9.088;2022-10-23T08:18:52;97791.31;;;14.56;86.74
42601;BME280;28229;48.856;9.088;2022-10-23T08:21:18;97799.97;;;14.68;88.11
42601;BME280;28229;48.856;9.088;2022-10-23T08:23:45;97791.38;;;14.83;87.65
42601;BME280;28229;48.856;9.088;2022-10-23T08:26:11;97792.94;;;15.01;87.35
42601;BME280;28229;48.856;9.088;2022-10-23T08:28:37;97784.31;;;15.16;85.67
42601;BME280;28229;48.856;9.088;2022-10-23T08:31:11;97781.00;;;15.31;82.97
42601;BME280;28229;48.856;9.088;2022-10-23T08:33:40;97782.13;;;15.35;81.45
42601;BME280;28229;48.856;9.088;2022-10-23T08:36:16;97772.56;;;15.34;81.03
42601;BME280;28229;48.856;9.088;2022-10-23T08:38:42;97773.09;;;15.36;81.60
42601;BME280;28229;48.856;9.088;2022-10-23T08:41:33;97772.13;;;15.42;82.14
42601;BME280;28229;48.856;9.088;2022-10-23T08:44:15;97777.72;;;15.46;81.25
42601;BME280;28229;48.856;9.088;2022-10-23T08:46:46;97771.09;;;15.48;80.04
42601;BME280;28229;48.856;9.088;2022-10-23T08:49:35;97765.59;;;15.55;79.93
42601;BME280;28229;48.856;9.088;2022-10-23T08:52:16;97764.34;;;15.68;78.45
42601;BME280;28229;48.856;9.088;2022-10-23T08:54:53;97766.03;;;15.79;77.29
42601;BME280;28229;48.856;9.088;2022-10-23T08:57:23;97764.25;;;15.85;77.78
42601;BME280;28229;48.856;9.088;2022-10-23T08:59:58;97771.78;;;16.03;78.11
42601;BME280;28229;48.856;9.088;2022-10-23T09:02:49;97773.22;;;16.26;77.01
42601;BME280;28229;48.856;9.088;2022-10-23T09:05:29;97770.69;;;16.52;76.83
42601;BME280;28229;48.856;9.088;2022-10-23T09:08:21;97767.88;;;16.79;74.79
42601;BME280;28229;48.856;9.088;2022-10-23T09:11:23;97779.63;;;17.04;72.90
42601;BME280;28229;48.856;9.088;2022-10-23T09:16:49;97767.75;;;17.47;70.66
42601;BME280;28229;48.856;9.088;2022-10-23T09:19:21;97763.22;;;17.68;70.74
42601;BME280;28229;48.856;9.088;2022-10-23T09:21:51;97762.94;;;17.85;70.58
42601;BME280;28229;48.856;9.088;2022-10-23T09:24:18;97771.97;;;18.05;68.98
42601;BME280;28229;48.856;9.088;2022-10-23T09:26:46;97776.22;;;18.11;68.20
42601;BME280;28229;48.856;9.088;2022-10-23T09:29:31;97762.34;;;18.19;67.94
42601;BME280;28229;48.856;9.088;2022-10-23T09:32:03;97763.63;;;18.37;66.17
42601;BME280;28229;48.856;9.088;2022-10-23T09:34:32;97764.94;;;18.45;66.68
42601;BME280;28229;48.856;9.088;2022-10-23T09:37:03;97756.41;;;18.43;65.21
42601;BME280;28229;48.856;9.088;2022-10-23T09:39:31;97753.16;;;18.61;66.66
42601;BME280;28229;48.856;9.088;2022-10-23T09:41:59;97746.16;;;18.71;63.95
42601;BME280;28229;48.856;9.088;2022-10-23T09:44:31;97748.69;;;18.96;64.92
42601;BME280;28229;48.856;9.088;2022-10-23T09:47:00;97742.50;;;19.11;62.58
42601;BME280;28229;48.856;9.088;2022-10-23T09:49:30;97744.84;;;19.18;64.07
42601;BME280;28229;48.856;9.088;2022-10-23T09:54:47;97728.88;;;19.47;60.53
42601;BME280;28229;48.856;9.088;2022-10-23T09:57:23;97722.00;;;19.75;62.63
42601;BME280;28229;48.856;9.088;2022-10-23T10:00:10;97717.63;;;20.09;60.53
42601;BME280;28229;48.856;9.088;2022-10-23T10:02:41;97721.44;;;20.27;59.56
42601;BME280;28229;48.856;9.088;2022-10-23T10:05:32;97741.31;;;20.40;57.92
42601;BME280;28229;48.856;9.088;2022-10-23T10:08:30;97748.47;;;20.44;56.81
42601;BME280;28229;48.856;9.088;2022-10-23T10:11:01;97748.38;;;20.30;57.34
42601;BME280;28229;48.856;9.088;2022-10-23T10:16:03;97748.88;;;20.08;58.24
42601;BME280;28229;48.856;9.088;2022-10-23T10:18:41;97742.38;;;20.20;59.56
42601;BME280;28229;48.856;9.088;2022-10-23T10:21:20;97725.06;;;20.36;58.40
42601;BME280;28229;48.856;9.088;2022-10-23T10:23:57;97728.25;;;20.38;57.54
42601;BME280;28229;48.856;9.088;2022-10-23T10:26:39;97724.34;;;20.30;57.89
42601;BME280;28229;48.856;9.088;2022-10-23T10:40:39;97716.78;;;20.57;54.84
42601;BME280;28229;48.856;9.088;2022-10-23T10:46:09;97686.47;;;21.04;54.31
42601;BME280;28229;48.856;9.088;2022-10-23T10:48:40;97677.38;;;21.19;53.68
42601;BME280;28229;48.856;9.088;2022-10-23T10:57:01;97699.13;;;20.99;54.58
42601;BME280;28229;48.856;9.088;2022-10-23T10:59:32;97707.28;;;20.88;53.69
42601;BME280;28229;48.856;9.088;2022-10-23T11:04:51;97702.00;;;20.83;53.52
42601;BME280;28229;48.856;9.088;2022-10-23T11:07:24;97694.50;;;20.85;54.70
42601;BME280;28229;48.856;9.088;2022-10-23T11:09:52;97702.00;;;20.83;55.56
42601;BME280;28229;48.856;9.088;2022-10-23T11:12:22;97675.91;;;20.94;55.28
42601;BME280;28229;48.856;9.088;2022-10-23T11:14:49;97674.97;;;21.04;55.61
42601;BME280;28229;48.856;9.088;2022-10-23T11:17:22;97678.38;;;21.09;55.63
42601;BME280;28229;48.856;9.088;2022-10-23T11:20:03;97670.63;;;21.08;54.33
42601;BME280;28229;48.856;9.088;2022-10-23T11:22:41;97662.31;;;21.09;55.41
42601;BME280;28229;48.856;9.088;2022-10-23T11:31:37;97642.03;;;21.22;57.25
42601;BME280;28229;48.856;9.088;2022-10-23T11:34:06;97638.28;;;21.23;55.53
42601;BME280;28229;48.856;9.088;2022-10-23T11:36:52;97637.19;;;21.24;55.75
42601;BME280;28229;48.856;9.088;2022-10-23T11:39:24;97630.47;;;21.27;57.11
42601;BME280;28229;48.856;9.088;2022-10-23T11:47:04;97634.09;;;21.50;55.09
42601;BME280;28229;48.856;9.088;2022-10-23T11:49:30;97627.66;;;21.51;54.82
42601;BME280;28229;48.856;9.088;2022-10-23T11:52:01;97622.19;;;21.56;54.60
42601;BME280;28229;48.856;9.088;2022-10-23T11:54:28;97622.09;;;21.61;54.57
42601;BME280;28229;48.856;9.088;2022-10-23T11:59:58;97610.72;;;21.70;54.02
42601;BME280;28229;48.856;9.088;2022-10-23T12:02:36;97616.47;;;21.77;52.91
42601;BME280;28229;48.856;9.088;2022-10-23T12:07:34;97622.00;;;21.66;52.38
42601;BME280;28229;48.856;9.088;2022-10-23T12:10:04;97614.66;;;21.72;52.56
42601;BME280;28229;48.856;9.088;2022-10-23T12:15:17;97612.28;;;21.71;50.50
42601;BME280;28229;48.856;9.088;2022-10-23T12:17:44;97607.31;;;21.64;50.33
42601;BME280;28229;48.856;9.088;2022-10-23T12:22:46;97598.03;;;21.61;51.81
42601;BME280;28229;48.856;9.088;2022-10-23T12:28:31;97613.31;;;21.75;55.00
42601;BME280;28229;48.856;9.088;2022-10-23T12:38:53;97596.41;;;21.88;55.07
42601;BME280;28229;48.856;9.088;2022-10-23T12:41:30;97596.31;;;22.07;55.65
42601;BME280;28229;48.856;9.088;2022-10-23T12:44:01;97591.63;;;22.27;53.17
42601;BME280;28229;48.856;9.088;2022-10-23T12:46:35;97583.50;;;22.32;53.14
42601;BME280;28229;48.856;9.088;2022-10-23T12:49:20;97583.91;;;22.48;53.88
42601;BME280;28229;48.856;9.088;2022-10-23T12:52:13;97583.38;;;22.59;51.22
42601;BME280;28229;48.856;9.088;2022-10-23T12:54:40;97576.63;;;22.62;50.88
42601;BME280;28229;48.856;9.088;2022-10-23T12:59:47;97564.16;;;22.89;49.27
42601;BME280;28229;48.856;9.088;2022-10-23T13:02:27;97555.50;;;23.14;49.12
42601;BME280;28229;48.856;9.088;2022-10-23T13:04:55;97560.13;;;23.31;48.71
42601;BME280;28229;48.856;9.088;2022-10-23T13:07:27;97551.41;;;23.57;48.75
42601;BME280;28229;48.856;9.088;2022-10-23T13:09:57;97537.44;;;23.86;46.43
42601;BME280;28229;48.856;9.088;2022-10-23T13:12:32;97545.06;;;24.19;47.77
42601;BME280;28229;48.856;9.088;2022-10-23T13:17:33;97529.75;;;24.55;47.01
42601;BME280;28229;48.856;9.088;2022-10-23T13:20:28;97517.50;;;24.83;45.28
42601;BME280;28229;48.856;9.088;2022-10-23T13:25:29;97517.81;;;24.82;44.98
42601;BME280;28229;48.856;9.088;2022-10-23T13:28:12;97520.63;;;24.94;45.05
42601;BME280;28229;48.856;9.088;2022-10-23T13:30:41;97521.72;;;25.02;44.95
42601;BME280;28229;48.856;9.088;2022-10-23T13:33:14;97523.31;;;25.03;44.09
42601;BME280;28229;48.856;9.088;2022-10-23T13:38:29;97517.66;;;24.87;44.47
42601;BME280;28229;48.856;9.088;2022-10-23T13:40:57;97522.44;;;24.64;44.58
42601;BME280;28229;48.856;9.088;2022-10-23T13:43:24;97519.13;;;24.41;43.72
42601;BME280;28229;48.856;9.088;2022-10-23T13:45:51;97521.97;;;24.18;45.09
42601;BME280;28229;48.856;9.088;2022-10-23T13:48:17;97513.41;;;23.90;45.11
42601;BME280;28229;48.856;9.088;2022-10-23T13:50:43;97513.19;;;23.69;46.34
42601;BME280;28229;48.856;9.088;2022-10-23T13:53:13;97519.63;;;23.50;46.86
42601;BME280;28229;48.856;9.088;2022-10-23T13:55:42;97516.91;;;23.42;47.55
42601;BME280;28229;48.856;9.088;2022-10-23T13:58:09;97514.50;;;23.31;47.90
42601;BME280;28229;48.856;9.088;2022-10-23T14:00:36;97512.47;;;23.28;48.28
42601;BME280;28229;48.856;9.088;2022-10-23T14:03:02;97507.53;;;23.22;48.74
42601;BME280;28229;48.856;9.088;2022-10-23T14:05:28;97512.56;;;23.14;49.09
42601;BME280;28229;48.856;9.088;2022-10-23T14:07:54;97511.44;;;23.07;48.46
42601;BME280;28229;48.856;9.088;2022-10-23T14:10:20;97508.03;;;22.92;49.25
42601;BME280;28229;48.856;9.088;2022-10-23T14:12:47;97508.41;;;22.77;50.11
42601;BME280;28229;48.856;9.088;2022-10-23T14:15:18;97500.94;;;22.65;50.50
42601;BME280;28229;48.856;9.088;2022-10-23T14:17:44;97510.31;;;22.54;50.94
42601;BME280;28229;48.856;9.088;2022-10-23T14:20:10;97505.22;;;22.43;51.74
42601;BME280;28229;48.856;9.088;2022-10-23T14:22:36;97501.69;;;22.34;51.92
42601;BME280;28229;48.856;9.088;2022-10-23T14:25:03;97500.81;;;22.25;52.42
42601;BME280;28229;48.856;9.088;2022-10-23T14:27:29;97496.16;;;22.17;53.33
42601;BME280;28229;48.856;9.088;2022-10-23T14:29:55;97490.44;;;22.10;53.84
42601;BME280;28229;48.856;9.088;2022-10-23T14:32:21;97483.81;;;22.07;54.57
42601;BME280;28229;48.856;9.088;2022-10-23T14:34:52;97489.28;;;22.02;55.19
42601;BME280;28229;48.856;9.088;2022-10-23T14:37:19;97488.09;;;21.94;55.53
42601;BME280;28229;48.856;9.088;2022-10-23T14:39:45;97489.19;;;21.93;55.93
42601;BME280;28229;48.856;9.088;2022-10-23T14:42:12;97500.63;;;21.85;56.27
42601;BME280;28229;48.856;9.088;2022-10-23T14:44:38;97496.28;;;21.75;56.44
42601;BME280;28229;48.856;9.088;2022-10-23T14:47:04;97492.53;;;21.62;57.03
42601;BME280;28229;48.856;9.088;2022-10-23T14:49:30;97489.38;;;21.46;57.70
42601;BME280;28229;48.856;9.088;2022-10-23T14:51:57;97488.97;;;21.39;58.34
42601;BME280;28229;48.856;9.088;2022-10-23T14:54:22;97479.63;;;21.37;58.32
42601;BME280;28229;48.856;9.088;2022-10-23T14:56:48;97476.00;;;21.33;59.19
42601;BME280;28229;48.856;9.088;2022-10-23T14:59:14;97475.59;;;21.25;59.49
42601;BME280;28229;48.856;9.088;2022-10-23T15:01:42;97468.88;;;21.14;59.83